createdAt,value
2019-06-26T00:01:02.722Z,44
2019-06-26T00:06:07.659Z,44
2019-06-26T00:11:12.766Z,45
2019-06-26T00:16:17.980Z,44
2019-06-26T00:21:27.690Z,44
2019-06-26T00:26:37.688Z,44
2019-06-26T00:31:42.675Z,44
2019-06-26T00:36:47.744Z,44
2019-06-26T00:41:52.704Z,44
2019-06-26T00:51:52.847Z,45
2019-06-26T00:56:57.805Z,46
2019-06-26T01:02:02.860Z,46
2019-06-26T01:07:12.868Z,46
2019-06-26T01:17:17.989Z,47
2019-06-26T01:22:23.029Z,47
2019-06-26T01:27:27.981Z,48
2019-06-26T01:32:38.023Z,49
2019-06-26T01:37:47.997Z,49
2019-06-26T01:42:52.963Z,49
2019-06-26T01:47:58.023Z,49
2019-06-26T01:57:58.189Z,49
2019-06-26T02:03:03.253Z,50
2019-06-26T02:08:08.260Z,52
2019-06-26T02:13:18.529Z,51
2019-06-26T02:18:28.285Z,52
2019-06-26T02:23:33.169Z,52
2019-06-26T02:28:38.452Z,52
2019-06-26T02:33:43.274Z,53
2019-06-26T02:38:48.196Z,53
2019-06-26T02:43:53.229Z,55
2019-06-26T02:48:58.192Z,54
2019-06-26T02:54:03.239Z,54
2019-06-26T02:59:08.225Z,54
2019-06-26T03:04:13.248Z,54
2019-06-26T03:09:18.400Z,53
2019-06-26T03:14:23.278Z,53
2019-06-26T03:19:28.224Z,53
2019-06-26T03:24:38.276Z,54
2019-06-26T03:29:48.658Z,53
2019-06-26T03:34:53.132Z,53
2019-06-26T03:39:58.176Z,52
2019-06-26T03:45:03.173Z,51
2019-06-26T03:50:08.161Z,51
2019-06-26T03:55:18.202Z,50
2019-06-26T04:00:28.153Z,50
2019-06-26T04:05:33.204Z,50
2019-06-26T04:10:38.132Z,50
2019-06-26T04:15:43.427Z,49
2019-06-26T04:20:48.173Z,49
2019-06-26T04:25:58.238Z,48
2019-06-26T04:31:08.170Z,49
2019-06-26T04:36:13.217Z,49
2019-06-26T04:41:18.142Z,47
2019-06-26T04:46:23.202Z,45
2019-06-26T04:51:28.331Z,45
2019-06-26T04:56:33.148Z,44
2019-06-26T05:01:39.062Z,42
2019-06-26T05:06:43.223Z,42
2019-06-26T05:11:48.119Z,42
2019-06-26T05:16:53.272Z,41
2019-06-26T05:26:53.380Z,39
2019-06-26T05:31:58.421Z,38
2019-06-26T05:37:03.401Z,37
2019-06-26T05:42:13.360Z,38
2019-06-26T05:47:23.438Z,37
2019-06-26T05:52:28.470Z,36
2019-06-26T11:54:39.189Z,26
2019-06-26T11:59:43.774Z,27
2019-06-26T12:04:48.934Z,26
2019-06-26T12:09:58.953Z,26
2019-06-26T12:15:08.743Z,27
2019-06-26T12:20:20.158Z,26
2019-06-26T12:25:18.839Z,25
2019-06-26T12:30:23.695Z,25
2019-06-26T12:35:28.744Z,25
2019-06-26T12:40:39.147Z,26
2019-06-26T12:45:48.726Z,27
2019-06-26T12:50:53.769Z,28
2019-06-26T12:55:58.703Z,29
2019-06-26T13:01:03.811Z,29
2019-06-26T13:06:08.717Z,29
2019-06-26T13:11:13.678Z,29
2019-06-26T13:16:23.750Z,29
2019-06-26T13:21:33.758Z,29
2019-06-26T13:26:38.656Z,29
2019-06-26T13:31:43.768Z,30
2019-06-26T13:36:48.702Z,30
2019-06-26T13:41:53.739Z,29
2019-06-26T13:47:03.763Z,30
2019-06-26T13:52:13.725Z,30
2019-06-26T13:57:18.697Z,30
2019-06-26T14:02:23.998Z,30
2019-06-26T14:07:28.990Z,30
2019-06-26T14:12:33.772Z,31
2019-06-26T14:17:43.733Z,30
2019-06-26T14:22:53.800Z,30
2019-06-26T14:27:58.716Z,30
2019-06-26T14:33:03.679Z,31
2019-06-26T14:38:08.680Z,32
2019-06-26T14:43:13.763Z,32
2019-06-26T14:48:23.740Z,35
2019-06-26T14:53:33.702Z,33
2019-06-26T14:58:38.668Z,33
2019-06-26T15:03:43.713Z,35
2019-06-26T15:08:48.651Z,33
2019-06-26T15:13:53.667Z,34
2019-06-26T15:23:53.958Z,35
2019-06-26T15:28:58.946Z,36
2019-06-26T15:34:03.944Z,35
2019-06-26T15:39:14.224Z,35
2019-06-26T15:44:23.991Z,34
2019-06-26T15:49:28.965Z,34
2019-06-26T15:54:34.008Z,33
2019-06-26T15:59:39.008Z,33
2019-06-26T16:04:44.019Z,34
2019-06-26T16:09:54.007Z,33
2019-06-26T16:15:03.941Z,34
2019-06-26T16:20:08.989Z,33
2019-06-26T16:25:14.041Z,33
2019-06-26T16:30:19.084Z,33
2019-06-26T16:35:23.993Z,33
2019-06-26T16:45:24.192Z,33
2019-06-26T16:50:29.205Z,34
2019-06-26T16:55:34.253Z,35
2019-06-26T17:00:44.249Z,36
2019-06-26T17:05:54.203Z,36
2019-06-26T17:10:25.779Z,37
2019-06-26T17:15:30.845Z,37
2019-06-26T17:20:35.894Z,37
2019-06-26T17:25:45.832Z,37
2019-06-26T17:30:55.843Z,37
2019-06-26T17:36:00.842Z,36
2019-06-26T17:41:06.023Z,35
2019-06-26T17:46:10.806Z,35
2019-06-26T17:51:15.789Z,35
2019-06-26T19:13:59.579Z,39
2019-06-26T19:19:04.220Z,41
2019-06-26T19:24:10.944Z,43
2019-06-26T19:29:19.340Z,43
2019-06-26T19:39:24.382Z,43
2019-06-26T19:44:29.393Z,44
2019-06-26T19:49:34.415Z,46
2019-06-26T19:54:44.579Z,46
2019-06-26T19:59:54.393Z,46
2019-06-26T20:09:54.744Z,47
2019-06-26T20:14:59.769Z,47
2019-06-26T20:20:04.858Z,47
2019-06-26T20:25:14.810Z,47
2019-06-26T20:30:24.811Z,47
2019-06-26T20:35:32.196Z,48
2019-06-26T20:40:34.732Z,48
2019-06-26T20:45:39.779Z,49
2019-06-26T20:50:44.774Z,49
2019-06-26T20:55:49.716Z,49
2019-06-26T21:00:54.787Z,50
2019-06-26T21:05:59.866Z,50
2019-06-26T21:11:04.791Z,51
2019-06-26T21:16:09.826Z,51
2019-06-26T21:21:14.925Z,51
2019-06-26T21:26:19.750Z,51
2019-06-26T21:31:24.781Z,52
2019-06-26T21:36:34.744Z,51
2019-06-26T21:46:39.972Z,52
2019-06-26T21:51:44.898Z,52
2019-06-26T21:56:49.946Z,52
2019-06-26T22:01:59.951Z,53
2019-06-26T22:07:09.996Z,52
2019-06-26T22:12:14.995Z,53
2019-06-26T22:17:19.995Z,53
2019-06-26T22:22:24.930Z,53
2019-06-26T22:27:29.942Z,53
2019-06-26T22:32:40.009Z,54
2019-06-26T22:37:49.927Z,54
2019-06-26T22:42:54.972Z,53
2019-06-26T22:47:59.995Z,55
2019-06-26T22:53:05.029Z,55
2019-06-26T22:58:09.898Z,56
2019-06-26T23:03:14.944Z,57
2019-06-26T23:08:24.886Z,57
2019-06-26T23:13:34.906Z,57
2019-06-26T23:18:39.931Z,58
2019-06-26T23:23:45.139Z,58
2019-06-26T23:28:49.914Z,59
2019-06-26T23:33:54.884Z,59
2019-06-26T23:39:04.954Z,61
2019-06-26T23:44:14.944Z,62
2019-06-26T23:49:19.925Z,61
2019-06-26T23:54:24.908Z,63
